sensor_id;sensor_type;location;lat;lon;timestamp;pressure;altitude;pressure_sealevel;temperature;humidity
21520;BME280;10921;53.614;9.882;2023-02-16T00:00:27;102008.63;;;6.52;83.10
21520;BME280;10921;53.614;9.882;2023-02-16T00:02:54;102013.22;;;6.64;82.83
21520;BME280;10921;53.614;9.882;2023-02-16T00:05:27;102015.94;;;6.62;83.00
21520;BME280;10921;53.614;9.882;2023-02-16T00:07:54;102022.78;;;6.66;82.34
21520;BME280;10921;53.614;9.882;2023-02-16T00:10:23;102017.50;;;6.66;82.30
21520;BME280;10921;53.614;9.882;2023-02-16T00:12:51;102027.06;;;6.69;82.06
21520;BME280;10921;53.614;9.882;2023-02-16T00:15:36;102024.06;;;6.75;81.94
21520;BME280;10921;53.614;9.882;2023-02-16T00:18:06;102024.81;;;6.77;82.12
21520;BME280;10921;53.614;9.882;2023-02-16T00:20:39;102015.16;;;6.76;82.05
21520;BME280;10921;53.614;9.882;2023-02-16T00:23:06;102015.66;;;6.83;81.73
21520;BME280;10921;53.614;9.882;2023-02-16T00:25:32;102005.31;;;6.78;81.66
21520;BME280;10921;53.614;9.882;2023-02-16T00:28:12;102020.72;;;6.87;81.96
21520;BME280;10921;53.614;9.882;2023-02-16T00:30:39;102014.56;;;6.87;81.23
21520;BME280;10921;53.614;9.882;2023-02-16T00:33:18;102018.16;;;6.86;82.00
21520;BME280;10921;53.614;9.882;2023-02-16T00:35:44;102016.34;;;6.86;81.34
21520;BME280;10921;53.614;9.882;2023-02-16T00:38:11;102013.59;;;6.88;81.07
21520;BME280;10921;53.614;9.882;2023-02-16T00:40:39;102010.94;;;6.88;80.99
21520;BME280;10921;53.614;9.882;2023-02-16T00:43:10;102009.25;;;6.87;80.90
21520;BME280;10921;53.614;9.882;2023-02-16T00:45:38;102017.09;;;6.88;80.81
21520;BME280;10921;53.614;9.882;2023-02-16T00:48:05;102011.69;;;6.90;80.69
21520;BME280;10921;53.614;9.882;2023-02-16T00:50:32;102006.38;;;6.90;80.48
21520;BME280;10921;53.614;9.882;2023-02-16T00:52:59;102000.31;;;6.88;80.34
21520;BME280;10921;53.614;9.882;2023-02-16T00:55:33;101999.66;;;6.84;80.79
21520;BME280;10921;53.614;9.882;2023-02-16T00:58:25;101998.50;;;6.88;81.20
21520;BME280;10921;53.614;9.882;2023-02-16T01:00:59;101988.28;;;6.82;80.84
21520;BME280;10921;53.614;9.882;2023-02-16T01:03:28;101994.44;;;6.83;80.38
21520;BME280;10921;53.614;9.882;2023-02-16T01:05:55;101995.28;;;6.83;80.69
21520;BME280;10921;53.614;9.882;2023-02-16T01:08:52;101974.59;;;6.74;80.82
21520;BME280;10921;53.614;9.882;2023-02-16T01:11:38;101987.34;;;6.83;80.62
21520;BME280;10921;53.614;9.882;2023-02-16T01:14:04;101991.97;;;6.80;80.53
21520;BME280;10921;53.614;9.882;2023-02-16T01:16:40;101994.53;;;6.81;80.71
21520;BME280;10921;53.614;9.882;2023-02-16T01:19:10;101979.91;;;6.74;80.61
21520;BME280;10921;53.614;9.882;2023-02-16T01:21:37;101991.03;;;6.81;80.39
21520;BME280;10921;53.614;9.882;2023-02-16T01:24:04;101982.38;;;6.77;80.52
21520;BME280;10921;53.614;9.882;2023-02-16T01:26:40;101975.28;;;6.78;81.00
21520;BME280;10921;53.614;9.882;2023-02-16T01:29:13;101982.28;;;6.79;80.62
21520;BME280;10921;53.614;9.882;2023-02-16T01:31:40;101981.53;;;6.77;80.39
21520;BME280;10921;53.614;9.882;2023-02-16T01:34:07;101976.59;;;6.70;80.78
21520;BME280;10921;53.614;9.882;2023-02-16T01:36:39;101968.81;;;6.67;80.92
21520;BME280;10921;53.614;9.882;2023-02-16T01:39:08;101978.19;;;6.73;80.61
21520;BME280;10921;53.614;9.882;2023-02-16T01:41:57;101970.34;;;6.72;80.83
21520;BME280;10921;53.614;9.882;2023-02-16T01:44:31;101974.78;;;6.71;80.89
21520;BME280;10921;53.614;9.882;2023-02-16T01:47:39;101966.53;;;6.76;81.12
21520;BME280;10921;53.614;9.882;2023-02-16T01:50:18;101948.78;;;6.62;80.79
21520;BME280;10921;53.614;9.882;2023-02-16T01:52:52;101974.59;;;6.74;81.13
21520;BME280;10921;53.614;9.882;2023-02-16T01:55:25;101939.75;;;6.50;80.92
21520;BME280;10921;53.614;9.882;2023-02-16T02:06:09;101974.50;;;6.76;80.26
21520;BME280;10921;53.614;9.882;2023-02-16T02:09:05;101971.59;;;6.80;80.56
21520;BME280;10921;53.614;9.882;2023-02-16T02:11:42;101931.53;;;6.55;80.33
21520;BME280;10921;53.614;9.882;2023-02-16T02:14:15;101967.22;;;6.79;79.67
21520;BME280;10921;53.614;9.882;2023-02-16T02:16:57;101958.09;;;6.69;80.17
21520;BME280;10921;53.614;9.882;2023-02-16T02:19:24;101940.66;;;6.65;79.64
21520;BME280;10921;53.614;9.882;2023-02-16T02:38:52;101962.09;;;6.76;79.64
21520;BME280;10921;53.614;9.882;2023-02-16T02:41:31;101966.38;;;6.79;79.03
21520;BME280;10921;53.614;9.882;2023-02-16T02:44:21;101971.09;;;6.74;79.55
21520;BME280;10921;53.614;9.882;2023-02-16T02:46:49;101973.94;;;6.70;79.41
21520;BME280;10921;53.614;9.882;2023-02-16T02:49:16;101964.84;;;6.75;79.08
21520;BME280;10921;53.614;9.882;2023-02-16T02:51:42;101941.84;;;6.59;79.55
21520;BME280;10921;53.614;9.882;2023-02-16T02:54:21;101921.97;;;6.52;79.39
21520;BME280;10921;53.614;9.882;2023-02-16T02:57:33;101941.50;;;6.65;79.12
21520;BME280;10921;53.614;9.882;2023-02-16T03:00:22;101951.88;;;6.70;79.51
21520;BME280;10921;53.614;9.882;2023-02-16T03:05:50;101911.59;;;6.48;78.91
21520;BME280;10921;53.614;9.882;2023-02-16T03:08:21;101948.44;;;6.68;78.70
21520;BME280;10921;53.614;9.882;2023-02-16T03:10:55;101909.81;;;6.48;78.74
21520;BME280;10921;53.614;9.882;2023-02-16T03:13:45;101941.78;;;6.61;78.95
21520;BME280;10921;53.614;9.882;2023-02-16T03:16:19;101947.94;;;6.61;79.03
21520;BME280;10921;53.614;9.882;2023-02-16T03:18:49;101943.75;;;6.57;78.84
21520;BME280;10921;53.614;9.882;2023-02-16T03:21:34;101941.22;;;6.56;78.80
21520;BME280;10921;53.614;9.882;2023-02-16T03:24:23;101911.56;;;6.33;79.01
21520;BME280;10921;53.614;9.882;2023-02-16T03:27:12;101927.59;;;6.46;78.65
21520;BME280;10921;53.614;9.882;2023-02-16T03:29:58;101905.56;;;6.30;78.66
21520;BME280;10921;53.614;9.882;2023-02-16T03:32:26;101907.28;;;6.31;78.73
21520;BME280;10921;53.614;9.882;2023-02-16T03:34:53;101933.00;;;6.45;78.58
21520;BME280;10921;53.614;9.882;2023-02-16T03:37:19;101908.06;;;6.33;78.71
21520;BME280;10921;53.614;9.882;2023-02-16T03:39:46;101935.94;;;6.40;78.86
21520;BME280;10921;53.614;9.882;2023-02-16T03:42:32;101920.28;;;6.35;79.30
21520;BME280;10921;53.614;9.882;2023-02-16T03:44:58;101935.16;;;6.38;78.95
21520;BME280;10921;53.614;9.882;2023-02-16T03:47:25;101924.72;;;6.35;79.20
21520;BME280;10921;53.614;9.882;2023-02-16T03:49:51;101930.19;;;6.32;79.23
21520;BME280;10921;53.614;9.882;2023-02-16T03:52:18;101920.53;;;6.31;79.36
21520;BME280;10921;53.614;9.882;2023-02-16T03:54:44;101891.41;;;6.15;79.41
21520;BME280;10921;53.614;9.882;2023-02-16T03:57:10;101906.72;;;6.26;79.30
21520;BME280;10921;53.614;9.882;2023-02-16T03:59:37;101905.75;;;6.27;79.55
21520;BME280;10921;53.614;9.882;2023-02-16T04:02:03;101884.38;;;6.14;79.43
21520;BME280;10921;53.614;9.882;2023-02-16T04:04:30;101905.00;;;6.25;79.52
21520;BME280;10921;53.614;9.882;2023-02-16T04:06:56;101901.59;;;6.23;79.40
21520;BME280;10921;53.614;9.882;2023-02-16T04:09:23;101849.56;;;5.90;79.19
21520;BME280;10921;53.614;9.882;2023-02-16T04:11:49;101869.13;;;6.04;79.27
21520;BME280;10921;53.614;9.882;2023-02-16T04:14:34;101890.91;;;6.09;79.23
21520;BME280;10921;53.614;9.882;2023-02-16T04:17:01;101893.19;;;6.15;79.28
21520;BME280;10921;53.614;9.882;2023-02-16T04:19:29;101907.13;;;6.18;79.43
21520;BME280;10921;53.614;9.882;2023-02-16T04:21:55;101909.88;;;6.17;79.62
21520;BME280;10921;53.614;9.882;2023-02-16T04:24:22;101903.22;;;6.10;79.65
21520;BME280;10921;53.614;9.882;2023-02-16T04:26:48;101897.25;;;6.06;79.70
21520;BME280;10921;53.614;9.882;2023-02-16T04:29:15;101907.38;;;6.14;79.84
21520;BME280;10921;53.614;9.882;2023-02-16T04:31:41;101903.03;;;6.13;79.78
21520;BME280;10921;53.614;9.882;2023-02-16T04:34:08;101897.06;;;6.09;79.75
21520;BME280;10921;53.614;9.882;2023-02-16T04:36:35;101899.44;;;6.14;79.95
21520;BME280;10921;53.614;9.882;2023-02-16T04:39:01;101899.63;;;6.11;79.83
21520;BME280;10921;53.614;9.882;2023-02-16T04:41:27;101899.81;;;6.08;80.13
21520;BME280;10921;53.614;9.882;2023-02-16T04:43:54;101895.53;;;6.05;79.94
21520;BME280;10921;53.614;9.882;2023-02-16T04:46:20;101900.38;;;6.13;79.72
21520;BME280;10921;53.614;9.882;2023-02-16T04:48:47;101906.44;;;6.15;79.47
21520;BME280;10921;53.614;9.882;2023-02-16T04:51:13;101908.25;;;6.14;79.41
21520;BME280;10921;53.614;9.882;2023-02-16T04:53:40;101894.34;;;6.11;79.54
21520;BME280;10921;53.614;9.882;2023-02-16T04:56:11;101897.63;;;6.14;79.82
21520;BME280;10921;53.614;9.882;2023-02-16T04:58:37;101886.28;;;6.12;79.55
21520;BME280;10921;53.614;9.882;2023-02-16T05:01:04;101897.72;;;6.13;79.38
21520;BME280;10921;53.614;9.882;2023-02-16T05:03:32;101897.94;;;6.10;79.55
21520;BME280;10921;53.614;9.882;2023-02-16T05:05:58;101900.22;;;6.16;79.45
21520;BME280;10921;53.614;9.882;2023-02-16T05:08:25;101901.44;;;6.10;79.44
21520;BME280;10921;53.614;9.882;2023-02-16T05:10:52;101896.69;;;6.15;79.37
21520;BME280;10921;53.614;9.882;2023-02-16T05:13:38;101900.28;;;6.14;79.23
21520;BME280;10921;53.614;9.882;2023-02-16T05:16:23;101903.97;;;6.12;79.17
21520;BME280;10921;53.614;9.882;2023-02-16T05:18:50;101892.63;;;6.10;79.51
21520;BME280;10921;53.614;9.882;2023-02-16T05:21:16;101869.72;;;5.93;79.24
21520;BME280;10921;53.614;9.882;2023-02-16T05:24:00;101912.69;;;6.14;79.01
21520;BME280;10921;53.614;9.882;2023-02-16T05:26:27;101885.34;;;5.97;78.86
21520;BME280;10921;53.614;9.882;2023-02-16T05:28:54;101886.88;;;6.02;79.01
21520;BME280;10921;53.614;9.882;2023-02-16T05:31:22;101888.50;;;6.04;79.02
21520;BME280;10921;53.614;9.882;2023-02-16T05:33:49;101887.06;;;5.98;79.31
21520;BME280;10921;53.614;9.882;2023-02-16T05:36:15;101901.59;;;6.07;79.37
21520;BME280;10921;53.614;9.882;2023-02-16T05:38:42;101913.06;;;6.08;79.12
21520;BME280;10921;53.614;9.882;2023-02-16T05:41:08;101918.34;;;6.08;78.82
21520;BME280;10921;53.614;9.882;2023-02-16T05:43:35;101911.19;;;6.10;79.00
21520;BME280;10921;53.614;9.882;2023-02-16T05:46:06;101916.47;;;6.10;79.22
21520;BME280;10921;53.614;9.882;2023-02-16T05:48:33;101883.84;;;5.93;79.19
21520;BME280;10921;53.614;9.882;2023-02-16T05:50:59;101907.59;;;6.11;79.07
21520;BME280;10921;53.614;9.882;2023-02-16T05:53:26;101899.63;;;6.11;79.21
21520;BME280;10921;53.614;9.882;2023-02-16T05:55:53;101896.78;;;6.14;78.77
21520;BME280;10921;53.614;9.882;2023-02-16T05:58:19;101896.22;;;6.09;78.70
21520;BME280;10921;53.614;9.882;2023-02-16T06:00:46;101904.94;;;6.11;78.87
21520;BME280;10921;53.614;9.882;2023-02-16T06:03:12;101899.88;;;6.06;78.86
21520;BME280;10921;53.614;9.882;2023-02-16T06:05:39;101894.50;;;6.08;78.95
21520;BME280;10921;53.614;9.882;2023-02-16T06:08:05;101900.91;;;6.04;78.61
21520;BME280;10921;53.614;9.882;2023-02-16T06:10:31;101905.19;;;6.06;78.96
21520;BME280;10921;53.614;9.882;2023-02-16T06:12:58;101902.44;;;6.08;78.48
21520;BME280;10921;53.614;9.882;2023-02-16T06:15:24;101900.56;;;6.10;78.46
21520;BME280;10921;53.614;9.882;2023-02-16T06:17:51;101895.16;;;6.11;78.39
21520;BME280;10921;53.614;9.882;2023-02-16T06:20:17;101889.03;;;6.11;78.31
21520;BME280;10921;53.614;9.882;2023-02-16T06:22:44;101898.78;;;6.10;78.12
21520;BME280;10921;53.614;9.882;2023-02-16T06:25:10;101894.50;;;6.08;78.24
21520;BME280;10921;53.614;9.882;2023-02-16T06:27:37;101898.00;;;6.08;78.29
21520;BME280;10921;53.614;9.882;2023-02-16T06:30:04;101896.47;;;6.04;78.39
21520;BME280;10921;53.614;9.882;2023-02-16T06:32:31;101826.88;;;5.53;78.66
21520;BME280;10921;53.614;9.882;2023-02-16T06:34:58;101917.59;;;6.06;78.56
21520;BME280;10921;53.614;9.882;2023-02-16T06:37:25;101917.06;;;5.99;78.66
21520;BME280;10921;53.614;9.882;2023-02-16T06:39:51;101920.47;;;6.01;78.74
21520;BME280;10921;53.614;9.882;2023-02-16T06:42:18;101906.63;;;5.96;78.96
21520;BME280;10921;53.614;9.882;2023-02-16T06:44:44;101893.81;;;5.88;79.13
21520;BME280;10921;53.614;9.882;2023-02-16T06:47:11;101882.41;;;5.86;79.29
21520;BME280;10921;53.614;9.882;2023-02-16T06:49:37;101897.56;;;6.00;79.39
21520;BME280;10921;53.614;9.882;2023-02-16T06:52:04;101899.81;;;5.92;79.49
21520;BME280;10921;53.614;9.882;2023-02-16T06:54:30;101875.88;;;5.93;79.63
21520;BME280;10921;53.614;9.882;2023-02-16T06:56:57;101892.88;;;6.05;79.45
21520;BME280;10921;53.614;9.882;2023-02-16T06:59:23;101852.59;;;5.83;79.45
21520;BME280;10921;53.614;9.882;2023-02-16T07:01:49;101898.25;;;6.04;79.79
21520;BME280;10921;53.614;9.882;2023-02-16T07:04:16;101886.56;;;6.08;79.42
21520;BME280;10921;53.614;9.882;2023-02-16T07:06:42;101896.88;;;6.12;79.52
21520;BME280;10921;53.614;9.882;2023-02-16T07:09:09;101876.19;;;6.19;79.20
21520;BME280;10921;53.614;9.882;2023-02-16T07:11:38;101875.06;;;6.23;78.91
21520;BME280;10921;53.614;9.882;2023-02-16T07:14:04;101873.19;;;6.25;79.02
21520;BME280;10921;53.614;9.882;2023-02-16T07:16:33;101874.47;;;6.18;78.99
21520;BME280;10921;53.614;9.882;2023-02-16T07:19:00;101887.88;;;6.30;78.80
21520;BME280;10921;53.614;9.882;2023-02-16T07:21:26;101896.34;;;6.37;78.66
21520;BME280;10921;53.614;9.882;2023-02-16T07:23:53;101900.53;;;6.41;78.41
21520;BME280;10921;53.614;9.882;2023-02-16T07:26:19;101891.19;;;6.34;78.61
21520;BME280;10921;53.614;9.882;2023-02-16T07:28:46;101887.44;;;6.38;78.26
21520;BME280;10921;53.614;9.882;2023-02-16T07:31:16;101906.13;;;6.51;78.19
21520;BME280;10921;53.614;9.882;2023-02-16T07:33:43;101887.91;;;6.45;78.05
21520;BME280;10921;53.614;9.882;2023-02-16T07:36:11;101871.38;;;6.41;77.80
21520;BME280;10921;53.614;9.882;2023-02-16T07:38:38;101900.69;;;6.68;77.48
21520;BME280;10921;53.614;9.882;2023-02-16T07:41:07;101842.00;;;6.44;77.50
21520;BME280;10921;53.614;9.882;2023-02-16T07:43:36;101891.16;;;6.80;77.69
21520;BME280;10921;53.614;9.882;2023-02-16T07:46:03;101881.13;;;6.85;77.03
21520;BME280;10921;53.614;9.882;2023-02-16T07:48:30;101887.19;;;6.87;76.84
21520;BME280;10921;53.614;9.882;2023-02-16T07:50:57;101888.59;;;6.92;76.60
21520;BME280;10921;53.614;9.882;2023-02-16T07:53:23;101903.31;;;6.98;76.74
21520;BME280;10921;53.614;9.882;2023-02-16T07:55:50;101887.13;;;7.02;76.38
21520;BME280;10921;53.614;9.882;2023-02-16T07:58:16;101897.06;;;7.13;76.51
21520;BME280;10921;53.614;9.882;2023-02-16T08:03:20;101902.56;;;7.24;75.93
21520;BME280;10921;53.614;9.882;2023-02-16T08:05:46;101906.75;;;7.28;75.74
21520;BME280;10921;53.614;9.882;2023-02-16T08:08:13;101890.44;;;7.34;75.76
21520;BME280;10921;53.614;9.882;2023-02-16T08:10:39;101885.78;;;7.38;75.47
21520;BME280;10921;53.614;9.882;2023-02-16T08:13:06;101886.44;;;7.41;74.85
21520;BME280;10921;53.614;9.882;2023-02-16T08:15:32;101882.66;;;7.46;74.98
21520;BME280;10921;53.614;9.882;2023-02-16T08:17:59;101854.22;;;7.19;75.06
21520;BME280;10921;53.614;9.882;2023-02-16T08:20:25;101886.53;;;7.54;74.79
21520;BME280;10921;53.614;9.882;2023-02-16T08:23:11;101854.59;;;7.41;74.50
21520;BME280;10921;53.614;9.882;2023-02-16T08:25:38;101889.75;;;7.59;74.87
21520;BME280;10921;53.614;9.882;2023-02-16T08:28:04;101895.16;;;7.72;74.49
21520;BME280;10921;53.614;9.882;2023-02-16T08:30:32;101898.28;;;7.79;73.96
21520;BME280;10921;53.614;9.882;2023-02-16T08:33:00;101889.81;;;7.86;73.82
21520;BME280;10921;53.614;9.882;2023-02-16T08:35:27;101863.59;;;7.80;73.76
21520;BME280;10921;53.614;9.882;2023-02-16T08:38:00;101886.91;;;8.03;73.95
21520;BME280;10921;53.614;9.882;2023-02-16T08:40:27;101897.44;;;8.05;72.99
21520;BME280;10921;53.614;9.882;2023-02-16T08:42:55;101893.50;;;8.10;73.29
21520;BME280;10921;53.614;9.882;2023-02-16T08:45:21;101874.91;;;8.10;72.64
21520;BME280;10921;53.614;9.882;2023-02-16T08:47:48;101882.19;;;8.21;72.65
21520;BME280;10921;53.614;9.882;2023-02-16T08:50:14;101892.41;;;8.27;72.35
21520;BME280;10921;53.614;9.882;2023-02-16T08:52:42;101872.84;;;8.28;72.17
21520;BME280;10921;53.614;9.882;2023-02-16T08:55:08;101870.94;;;8.30;71.75
21520;BME280;10921;53.614;9.882;2023-02-16T08:57:34;101881.50;;;8.32;71.81
21520;BME280;10921;53.614;9.882;2023-02-16T09:00:02;101903.78;;;8.43;71.98
21520;BME280;10921;53.614;9.882;2023-02-16T09:02:47;101902.81;;;8.44;71.80
21520;BME280;10921;53.614;9.882;2023-02-16T09:05:15;101901.47;;;8.52;71.93
21520;BME280;10921;53.614;9.882;2023-02-16T09:07:41;101869.72;;;8.36;71.51
21520;BME280;10921;53.614;9.882;2023-02-16T09:10:08;101889.78;;;8.54;71.38
21520;BME280;10921;53.614;9.882;2023-02-16T09:12:34;101895.13;;;8.67;71.45
21520;BME280;10921;53.614;9.882;2023-02-16T09:15:01;101901.09;;;8.70;71.36
21520;BME280;10921;53.614;9.882;2023-02-16T09:17:28;101871.88;;;8.56;71.21
21520;BME280;10921;53.614;9.882;2023-02-16T09:19:54;101885.13;;;8.70;71.41
21520;BME280;10921;53.614;9.882;2023-02-16T09:22:21;101896.84;;;8.80;70.74
21520;BME280;10921;53.614;9.882;2023-02-16T09:24:48;101900.06;;;8.86;70.65
21520;BME280;10921;53.614;9.882;2023-02-16T09:27:15;101911.78;;;8.96;70.76
21520;BME280;10921;53.614;9.882;2023-02-16T09:29:41;101912.81;;;8.93;70.80
21520;BME280;10921;53.614;9.882;2023-02-16T09:32:09;101916.13;;;9.09;70.67
21520;BME280;10921;53.614;9.882;2023-02-16T09:34:35;101921.78;;;9.17;70.31
21520;BME280;10921;53.614;9.882;2023-02-16T09:37:02;101914.97;;;9.26;70.62
21520;BME280;10921;53.614;9.882;2023-02-16T09:39:28;101858.06;;;9.02;70.38
21520;BME280;10921;53.614;9.882;2023-02-16T09:42:18;101914.75;;;9.42;70.77
21520;BME280;10921;53.614;9.882;2023-02-16T09:45:08;101918.66;;;9.49;70.32
21520;BME280;10921;53.614;9.882;2023-02-16T09:47:40;101924.00;;;9.49;69.79
21520;BME280;10921;53.614;9.882;2023-02-16T09:50:20;101918.88;;;9.59;70.25
21520;BME280;10921;53.614;9.882;2023-02-16T09:53:23;101916.00;;;9.62;69.71
21520;BME280;10921;53.614;9.882;2023-02-16T09:58:40;101919.25;;;9.91;69.88
21520;BME280;10921;53.614;9.882;2023-02-16T10:01:18;101907.09;;;10.10;69.77
21520;BME280;10921;53.614;9.882;2023-02-16T10:09:09;101892.34;;;10.30;70.28
21520;BME280;10921;53.614;9.882;2023-02-16T10:12:01;101923.09;;;10.47;69.82
21520;BME280;10921;53.614;9.882;2023-02-16T10:14:46;101931.56;;;10.41;69.61
21520;BME280;10921;53.614;9.882;2023-02-16T10:19:58;101930.88;;;10.26;71.11
21520;BME280;10921;53.614;9.882;2023-02-16T10:22:33;101931.53;;;10.17;71.75
21520;BME280;10921;53.614;9.882;2023-02-16T10:25:11;101907.72;;;9.90;71.69
21520;BME280;10921;53.614;9.882;2023-02-16T10:27:42;101917.19;;;9.94;71.53
21520;BME280;10921;53.614;9.882;2023-02-16T10:30:16;101932.34;;;9.94;72.83
21520;BME280;10921;53.614;9.882;2023-02-16T10:32:56;101931.72;;;9.90;73.49
21520;BME280;10921;53.614;9.882;2023-02-16T10:35:35;101930.97;;;9.88;73.05
21520;BME280;10921;53.614;9.882;2023-02-16T10:40:58;101926.81;;;9.84;72.82
21520;BME280;10921;53.614;9.882;2023-02-16T10:43:37;101934.81;;;9.84;72.56
21520;BME280;10921;53.614;9.882;2023-02-16T10:46:05;101911.72;;;9.72;72.68
21520;BME280;10921;53.614;9.882;2023-02-16T10:48:32;101917.09;;;9.96;72.52
21520;BME280;10921;53.614;9.882;2023-02-16T10:51:05;101930.09;;;10.00;72.88
21520;BME280;10921;53.614;9.882;2023-02-16T10:54:03;101928.56;;;10.09;72.72
21520;BME280;10921;53.614;9.882;2023-02-16T10:56:42;101931.34;;;10.07;71.83
21520;BME280;10921;53.614;9.882;2023-02-16T10:59:17;101927.25;;;10.14;71.83
21520;BME280;10921;53.614;9.882;2023-02-16T11:01:55;101916.94;;;10.23;72.42
21520;BME280;10921;53.614;9.882;2023-02-16T11:04:36;101923.38;;;10.31;72.02
21520;BME280;10921;53.614;9.882;2023-02-16T11:07:12;101930.22;;;10.35;71.48
21520;BME280;10921;53.614;9.882;2023-02-16T11:09:40;101922.00;;;10.38;71.23
21520;BME280;10921;53.614;9.882;2023-02-16T11:14:51;101918.50;;;10.49;70.91
21520;BME280;10921;53.614;9.882;2023-02-16T11:17:20;101915.63;;;10.52;70.79
21520;BME280;10921;53.614;9.882;2023-02-16T11:20:22;101914.91;;;10.61;70.88
21520;BME280;10921;53.614;9.882;2023-02-16T11:22:49;101906.28;;;10.57;70.15
21520;BME280;10921;53.614;9.882;2023-02-16T11:30:17;101909.13;;;10.67;69.90
21520;BME280;10921;53.614;9.882;2023-02-16T11:32:50;101903.78;;;10.67;70.21
21520;BME280;10921;53.614;9.882;2023-02-16T11:35:16;101904.13;;;10.63;70.13
21520;BME280;10921;53.614;9.882;2023-02-16T11:37:44;101897.31;;;10.58;70.23
21520;BME280;10921;53.614;9.882;2023-02-16T11:40:43;101913.13;;;10.73;70.34
21520;BME280;10921;53.614;9.882;2023-02-16T11:43:16;101901.22;;;10.66;70.35
21520;BME280;10921;53.614;9.882;2023-02-16T11:45:43;101908.88;;;10.70;70.48
21520;BME280;10921;53.614;9.882;2023-02-16T11:48:27;101896.13;;;10.74;70.53
21520;BME280;10921;53.614;9.882;2023-02-16T11:50:58;101902.56;;;10.71;70.75
21520;BME280;10921;53.614;9.882;2023-02-16T11:53:28;101897.19;;;10.60;70.28
21520;BME280;10921;53.614;9.882;2023-02-16T11:56:10;101910.50;;;10.84;70.19
21520;BME280;10921;53.614;9.882;2023-02-16T11:58:38;101900.63;;;10.73;70.26
21520;BME280;10921;53.614;9.882;2023-02-16T12:10:07;101900.16;;;10.79;71.14
21520;BME280;10921;53.614;9.882;2023-02-16T12:12:58;101897.75;;;10.87;71.07
21520;BME280;10921;53.614;9.882;2023-02-16T12:15:31;101902.34;;;10.85;71.25
21520;BME280;10921;53.614;9.882;2023-02-16T12:18:28;101898.38;;;10.91;71.20
21520;BME280;10921;53.614;9.882;2023-02-16T12:21:13;101913.53;;;10.90;71.15
21520;BME280;10921;53.614;9.882;2023-02-16T12:23:54;101894.84;;;10.90;71.25
21520;BME280;10921;53.614;9.882;2023-02-16T12:35:10;101887.56;;;10.92;72.20
21520;BME280;10921;53.614;9.882;2023-02-16T12:41:04;101878.53;;;10.71;73.09
21520;BME280;10921;53.614;9.882;2023-02-16T12:43:49;101883.63;;;10.74;73.37
21520;BME280;10921;53.614;9.882;2023-02-16T12:46:31;101876.38;;;10.76;73.93
21520;BME280;10921;53.614;9.882;2023-02-16T12:49:26;101872.22;;;10.72;73.88
21520;BME280;10921;53.614;9.882;2023-02-16T12:52:10;101879.38;;;10.72;74.73
21520;BME280;10921;53.614;9.882;2023-02-16T12:54:48;101861.06;;;10.67;74.63
21520;BME280;10921;53.614;9.882;2023-02-16T12:57:19;101879.03;;;10.76;74.76
21520;BME280;10921;53.614;9.882;2023-02-16T12:59:53;101859.97;;;10.70;74.64
21520;BME280;10921;53.614;9.882;2023-02-16T13:02:46;101875.91;;;10.82;75.04
21520;BME280;10921;53.614;9.882;2023-02-16T13:05:17;101867.91;;;10.82;74.90
21520;BME280;10921;53.614;9.882;2023-02-16T13:07:48;101863.53;;;10.81;75.65
21520;BME280;10921;53.614;9.882;2023-02-16T13:10:32;101851.88;;;10.82;75.77
21520;BME280;10921;53.614;9.882;2023-02-16T13:13:33;101851.88;;;10.82;76.79
21520;BME280;10921;53.614;9.882;2023-02-16T13:16:06;101847.84;;;10.77;77.38
21520;BME280;10921;53.614;9.882;2023-02-16T13:18:54;101823.66;;;10.56;77.53
21520;BME280;10921;53.614;9.882;2023-02-16T13:27:27;101838.00;;;10.66;79.18
21520;BME280;10921;53.614;9.882;2023-02-16T13:30:06;101828.75;;;10.59;79.49
21520;BME280;10921;53.614;9.882;2023-02-16T13:44:12;101824.75;;;10.53;80.11
21520;BME280;10921;53.614;9.882;2023-02-16T13:46:47;101827.78;;;10.49;80.57
21520;BME280;10921;53.614;9.882;2023-02-16T13:49:30;101773.41;;;10.15;80.85
21520;BME280;10921;53.614;9.882;2023-02-16T13:51:58;101813.19;;;10.42;80.67
21520;BME280;10921;53.614;9.882;2023-02-16T13:54:29;101788.03;;;10.22;81.30
21520;BME280;10921;53.614;9.882;2023-02-16T13:56:56;101820.44;;;10.40;81.19
21520;BME280;10921;53.614;9.882;2023-02-16T14:01:52;101813.19;;;10.42;81.56
21520;BME280;10921;53.614;9.882;2023-02-16T14:09:29;101817.44;;;10.44;81.40
21520;BME280;10921;53.614;9.882;2023-02-16T14:22:52;101779.50;;;10.52;81.39
21520;BME280;10921;53.614;9.882;2023-02-16T14:25:31;101790.19;;;10.63;81.98
21520;BME280;10921;53.614;9.882;2023-02-16T14:30:55;101795.31;;;10.66;81.93
21520;BME280;10921;53.614;9.882;2023-02-16T14:33:46;101788.72;;;10.70;81.92
21520;BME280;10921;53.614;9.882;2023-02-16T14:36:18;101801.38;;;10.68;81.07
21520;BME280;10921;53.614;9.882;2023-02-16T14:38:49;101776.97;;;10.50;81.15
21520;BME280;10921;53.614;9.882;2023-02-16T14:41:32;101794.06;;;10.70;81.42
21520;BME280;10921;53.614;9.882;2023-02-16T14:49:28;101791.16;;;10.73;81.32
21520;BME280;10921;53.614;9.882;2023-02-16T14:52:27;101782.31;;;10.73;81.04
21520;BME280;10921;53.614;9.882;2023-02-16T15:00:33;101791.06;;;10.75;80.22
21520;BME280;10921;53.614;9.882;2023-02-16T15:03:12;101791.91;;;10.75;80.16
21520;BME280;10921;53.614;9.882;2023-02-16T15:05:40;101798.09;;;10.76;79.98
21520;BME280;10921;53.614;9.882;2023-02-16T15:08:12;101798.22;;;10.74;80.52
21520;BME280;10921;53.614;9.882;2023-02-16T15:10:43;101792.03;;;10.74;80.10
21520;BME280;10921;53.614;9.882;2023-02-16T15:13:25;101779.16;;;10.68;81.04
21520;BME280;10921;53.614;9.882;2023-02-16T15:15:55;101792.13;;;10.72;80.69
21520;BME280;10921;53.614;9.882;2023-02-16T15:18:32;101760.31;;;10.47;81.21
21520;BME280;10921;53.614;9.882;2023-02-16T15:20:59;101809.00;;;10.73;80.69
21520;BME280;10921;53.614;9.882;2023-02-16T15:23:31;101805.59;;;10.71;81.28
21520;BME280;10921;53.614;9.882;2023-02-16T15:26:05;101777.91;;;10.49;81.51